createdAt,value
2022-11-04T00:03:23.424Z,99532.39
2022-11-04T00:08:27.198Z,99523.06
2022-11-04T00:13:33.191Z,99530.66
2022-11-04T00:18:36.881Z,99520.05
2022-11-04T00:24:00.683Z,99515.65
2022-11-04T00:29:04.175Z,99516.27
2022-11-04T00:34:07.635Z,99518.75
2022-11-04T00:39:10.945Z,99509.73
2022-11-04T00:44:14.323Z,99504.77
2022-11-04T00:49:18.126Z,99486.59
2022-11-04T00:54:21.901Z,99472.60
2022-11-04T00:59:27.109Z,99463.28
2022-11-04T01:04:31.352Z,99455.67
2022-11-04T01:09:36.180Z,99442.35
2022-11-04T01:14:40.156Z,99436.49
2022-11-04T01:19:43.740Z,99436.98
2022-11-04T01:24:47.717Z,99423.34
2022-11-04T01:29:51.084Z,99416.63
2022-11-04T01:34:54.515Z,99411.13
2022-11-04T01:39:57.894Z,99407.11
2022-11-04T01:45:01.613Z,99399.50
2022-11-04T01:50:21.609Z,99390.14
2022-11-04T01:55:28.521Z,99382.94
2022-11-04T02:00:33.589Z,99376.17
2022-11-04T02:05:37.474Z,99374.93
2022-11-04T02:10:42.231Z,99370.89
2022-11-04T02:15:51.785Z,99368.91
2022-11-04T02:21:33.906Z,99369.32
2022-11-04T02:26:49.345Z,99368.05
2022-11-04T02:32:08.078Z,99370.92
2022-11-04T02:37:14.533Z,99363.10
2022-11-04T02:42:55.488Z,99357.89
2022-11-04T02:48:05.850Z,99353.95
2022-11-04T02:53:21.950Z,99355.33
2022-11-04T02:58:36.269Z,99361.11
2022-11-04T03:03:44.723Z,99359.19
2022-11-04T03:08:49.978Z,99360.19
2022-11-04T03:13:57.939Z,99358.61
2022-11-04T03:19:17.775Z,99354.73
2022-11-04T03:24:21.442Z,99357.25
2022-11-04T03:29:38.636Z,99353.27
2022-11-04T03:34:42.004Z,99351.77
2022-11-04T03:39:45.706Z,99351.61
2022-11-04T03:44:54.733Z,99346.96
2022-11-04T03:50:20.182Z,99336.02
2022-11-04T03:55:46.593Z,99328.92
2022-11-04T04:00:55.916Z,99323.25
2022-11-04T04:06:17.078Z,99320.46
2022-11-04T04:11:33.313Z,99313.36
2022-11-04T04:16:41.452Z,99311.49
2022-11-04T04:22:16.253Z,99310.41
2022-11-04T04:27:33.529Z,99308.73
2022-11-04T04:32:40.538Z,99304.59
2022-11-04T04:37:45.215Z,99299.36
2022-11-04T04:43:08.249Z,99292.24
2022-11-04T04:48:13.971Z,99281.78
2022-11-04T04:53:20.496Z,99282.59
2022-11-04T04:58:23.889Z,99282.63
2022-11-04T05:03:27.236Z,99278.14
2022-11-04T05:08:30.635Z,99278.09
2022-11-04T05:13:34.230Z,99280.90
2022-11-04T05:18:38.149Z,99280.54
2022-11-04T05:23:41.671Z,99278.38
2022-11-04T05:28:45.007Z,99271.64
2022-11-04T05:33:50.673Z,99271.14
2022-11-04T05:38:55.955Z,99268.20
2022-11-04T05:44:04.816Z,99260.75
2022-11-04T05:49:10.010Z,99253.22
2022-11-04T05:54:14.951Z,99247.63
2022-11-04T05:59:22.694Z,99245.98
2022-11-04T06:04:29.207Z,99245.16
2022-11-04T06:09:42.134Z,99246.85
2022-11-04T06:14:45.624Z,99252.34
2022-11-04T06:19:49.875Z,99260.02
2022-11-04T06:24:53.333Z,99265.88
2022-11-04T06:29:58.026Z,99268.14
2022-11-04T06:35:02.661Z,99271.75
2022-11-04T06:40:14.044Z,99277.62
2022-11-04T06:45:21.345Z,99277.16
2022-11-04T06:50:29.444Z,99264.50
2022-11-04T06:55:33.898Z,99261.67
2022-11-04T07:00:37.602Z,99261.14
2022-11-04T07:05:40.991Z,99269.79
2022-11-04T07:10:44.459Z,99278.50
2022-11-04T07:15:47.834Z,99275.74
2022-11-04T07:20:53.381Z,99274.23
2022-11-04T07:26:04.980Z,99281.14
2022-11-04T07:31:10.688Z,99289.22
2022-11-04T07:36:14.939Z,99292.20
2022-11-04T07:41:21.884Z,99292.23
2022-11-04T07:46:25.237Z,99292.93
2022-11-04T07:51:28.667Z,99296.01
2022-11-04T07:56:32.196Z,99294.70
2022-11-04T08:01:35.726Z,99295.86
2022-11-04T08:06:39.212Z,99294.08
2022-11-04T08:11:42.652Z,99291.05
2022-11-04T08:16:46.415Z,99291.67
2022-11-04T08:21:50.290Z,99286.40
2022-11-04T08:26:53.716Z,99284.12
2022-11-04T08:31:57.410Z,99274.79
2022-11-04T08:37:00.878Z,99268.27
2022-11-04T08:42:05.006Z,99262.48
2022-11-04T08:47:08.839Z,99261.92
2022-11-04T08:52:12.261Z,99255.57
2022-11-04T08:57:15.682Z,99251.58
2022-11-04T09:02:19.039Z,99248.83
2022-11-04T09:07:23.444Z,99251.27
2022-11-04T09:12:26.813Z,99246.25
2022-11-04T09:17:30.276Z,99234.48
2022-11-04T09:22:33.572Z,99236.37
2022-11-04T09:27:37.131Z,99229.95
2022-11-04T09:32:40.489Z,99222.63
2022-11-04T09:37:44.981Z,99232.95
2022-11-04T09:43:00.778Z,99234.60
2022-11-04T09:48:10.492Z,99231.06
2022-11-04T09:53:47.873Z,99225.68
2022-11-04T09:59:02.151Z,99229.19
2022-11-04T10:05:03.621Z,99233.23
2022-11-04T10:10:28.282Z,99228.59
2022-11-04T10:16:02.358Z,99222.44
2022-11-04T10:21:45.189Z,99215.16
2022-11-04T10:27:00.451Z,99213.30
2022-11-04T10:32:21.057Z,99214.05
2022-11-04T10:37:26.756Z,99209.36
2022-11-04T10:42:33.656Z,99217.39
2022-11-04T10:47:50.232Z,99224.27
2022-11-04T10:53:12.564Z,99232.87
2022-11-04T10:58:23.347Z,99233.22
2022-11-04T11:03:32.542Z,99221.67
2022-11-04T11:08:37.720Z,99209.45
2022-11-04T11:13:45.149Z,99208.40
2022-11-04T11:19:25.374Z,99217.63
2022-11-04T11:24:31.304Z,99212.91
2022-11-04T11:29:42.555Z,99201.52
2022-11-04T11:34:49.254Z,99194.63
2022-11-04T11:39:52.644Z,99183.86
2022-11-04T11:44:57.631Z,99192.36
2022-11-04T11:50:14.515Z,99197.86
2022-11-04T11:55:25.351Z,99198.40
2022-11-04T12:11:20.350Z,99189.49
2022-11-04T12:16:29.620Z,99182.75
2022-11-04T12:21:36.695Z,99187.95
2022-11-04T12:27:14.432Z,99198.38
2022-11-04T12:32:34.297Z,99207.95
2022-11-04T12:37:52.599Z,99212.25
2022-11-04T12:43:14.171Z,99210.45
2022-11-04T12:48:56.849Z,99210.89
2022-11-04T12:54:16.604Z,99202.14
2022-11-04T12:59:41.816Z,99196.77
2022-11-04T13:05:01.451Z,99186.61
2022-11-04T13:10:20.585Z,99187.57
2022-11-04T13:16:10.185Z,99186.84
2022-11-04T13:22:00.400Z,99186.27
2022-11-04T13:27:34.232Z,99196.04
2022-11-04T13:33:02.793Z,99204.94
2022-11-04T13:38:27.372Z,99201.98
2022-11-04T13:43:39.792Z,99200.97
2022-11-04T13:48:52.204Z,99203.71
2022-11-04T13:54:04.403Z,99201.55
2022-11-04T13:59:30.752Z,99196.93
2022-11-04T14:04:39.462Z,99194.70
2022-11-04T14:09:49.248Z,99192.73
2022-11-04T14:15:12.674Z,99188.67
2022-11-04T14:20:26.272Z,99200.39
2022-11-04T14:25:44.421Z,99197.52
2022-11-04T14:31:01.226Z,99194.67
2022-11-04T14:36:18.169Z,99204.20
2022-11-04T14:41:45.432Z,99208.48
2022-11-04T14:46:57.538Z,99206.02
2022-11-04T14:52:02.949Z,99207.61
2022-11-04T14:57:15.075Z,99200.95
2022-11-04T15:02:41.730Z,99208.10
2022-11-04T15:07:47.585Z,99208.08
2022-11-04T15:13:00.759Z,99210.96
2022-11-04T15:18:31.281Z,99216.50
2022-11-04T15:24:02.318Z,99214.11
2022-11-04T15:29:14.729Z,99213.08
2022-11-04T15:34:24.107Z,99215.96
2022-11-04T15:39:31.487Z,99215.60
2022-11-04T15:44:45.383Z,99213.90
2022-11-04T15:49:59.716Z,99221.03
2022-11-04T15:55:08.681Z,99221.16
2022-11-04T16:00:18.338Z,99218.62
2022-11-04T16:05:41.162Z,99219.85
2022-11-04T16:11:20.501Z,99214.20
2022-11-04T16:16:33.613Z,99205.73
2022-11-04T16:21:56.820Z,99213.72
2022-11-04T16:27:01.269Z,99212.02
2022-11-04T16:32:51.798Z,99213.90
2022-11-04T16:38:12.233Z,99216.64
2022-11-04T16:43:33.190Z,99211.17
2022-11-04T16:48:43.182Z,99209.52
2022-11-04T16:54:04.121Z,99206.05
2022-11-04T16:59:18.666Z,99207.61
2022-11-04T17:04:24.901Z,99206.96
2022-11-04T17:09:29.065Z,99214.42
2022-11-04T17:14:51.257Z,99209.58
2022-11-04T17:20:14.256Z,99194.77
2022-11-04T17:25:25.637Z,99206.13
2022-11-04T17:30:29.518Z,99199.73
2022-11-04T17:35:44.600Z,99193.23
2022-11-04T17:41:10.139Z,99189.66
2022-11-04T17:46:35.254Z,99189.98
2022-11-04T17:51:50.153Z,99192.08
2022-11-04T17:57:03.717Z,99193.20
2022-11-04T18:02:09.123Z,99179.73
2022-11-04T18:07:25.781Z,99181.10
2022-11-04T18:12:39.922Z,99180.42
2022-11-04T18:17:46.569Z,99175.38
2022-11-04T18:23:05.622Z,99168.56
2022-11-04T18:28:15.845Z,99167.83
2022-11-04T18:33:25.370Z,99167.42
2022-11-04T18:38:33.593Z,99156.39
2022-11-04T18:43:39.584Z,99161.56
2022-11-04T18:48:49.970Z,99162.75
2022-11-04T18:54:04.653Z,99172.02
2022-11-04T18:59:11.694Z,99181.77
2022-11-04T19:04:16.861Z,99185.89
2022-11-04T19:15:11.899Z,99196.73
2022-11-04T19:20:17.315Z,99187.79
2022-11-04T19:25:23.653Z,99192.03
2022-11-04T19:30:34.612Z,99198.94
2022-11-04T19:35:38.176Z,99197.27
2022-11-04T19:40:50.934Z,99198.52
2022-11-04T19:46:11.162Z,99206.26
2022-11-04T19:51:17.939Z,99205.74
2022-11-04T19:56:48.439Z,99200.09
2022-11-04T20:02:02.884Z,99206.16
2022-11-04T20:07:12.501Z,99211.29
2022-11-04T20:12:36.505Z,99213.48
2022-11-04T20:17:41.455Z,99215.81
2022-11-04T20:22:44.922Z,99222.62
2022-11-04T20:27:53.056Z,99223.04
2022-11-04T20:33:03.719Z,99223.38
2022-11-04T20:38:12.066Z,99229.45
2022-11-04T20:43:20.054Z,99224.86
2022-11-04T20:48:27.598Z,99225.37
2022-11-04T20:53:35.080Z,99229.38
2022-11-04T20:58:40.625Z,99230.50
2022-11-04T21:03:52.870Z,99231.19
2022-11-04T21:09:05.564Z,99221.20
2022-11-04T21:14:23.799Z,99224.03
2022-11-04T21:19:32.165Z,99225.76
2022-11-04T21:24:39.335Z,99220.68
2022-11-04T21:29:48.732Z,99223.04
2022-11-04T21:34:55.482Z,99224.15
2022-11-04T21:40:03.629Z,99229.88
2022-11-04T21:45:21.875Z,99234.05
2022-11-04T21:50:33.068Z,99230.99
2022-11-04T21:55:42.754Z,99227.04
2022-11-04T22:00:58.331Z,99222.95
2022-11-04T22:06:23.033Z,99222.19
2022-11-04T22:11:39.941Z,99218.71
2022-11-04T22:16:43.602Z,99216.20
2022-11-04T22:21:47.810Z,99221.98
2022-11-04T22:26:51.473Z,99222.70
2022-11-04T22:31:58.653Z,99228.42
2022-11-04T22:37:18.911Z,99228.41
2022-11-04T22:42:25.320Z,99233.48
2022-11-04T22:47:30.325Z,99232.32
2022-11-04T22:52:47.618Z,99236.50
2022-11-04T22:57:54.502Z,99245.94
2022-11-04T23:03:09.645Z,99251.86
2022-11-04T23:08:40.449Z,99265.70
2022-11-04T23:14:14.427Z,99272.04
2022-11-04T23:19:37.915Z,99269.20
2022-11-04T23:25:04.727Z,99271.59
2022-11-04T23:30:26.524Z,99281.28
2022-11-04T23:35:53.891Z,99289.62
2022-11-04T23:41:26.563Z,99288.56
2022-11-04T23:46:48.653Z,99288.55
2022-11-04T23:52:12.969Z,99280.51
2022-11-04T23:57:37.463Z,99294.36
